Tunis, Tunisia
Current Conditions -  °F | °C
As of 3:30 PM on Thursday 29 Jan 2015 (Local Time) from DTTA Reporting Station
Scattered Clouds Scattered Clouds  
Wind Chill: 14°   Ceiling: Unl
Heat Index: 14°   Visibility: 6mi
Dew Point:   Wind: 13mph
Humidity: 67%   Direction: 240°WSW
Pressure: 29.85"   Gusts: NA
Location:  36.84°N, 10.22°E
Report Text: DTTA 291430Z 24011KT 210V270 9999 SCT023TCU 14/08 Q1011 NOSIG
Loading
Personal Weather Stations






























Interactive Weather Map New forecast layout! Learn more

10-Day Weather Forecast

Advertisements
Track Severe Weather on mobile